Blue Lake, Mississippi
Current Conditions -  °F | °C
As of 6:35 PM on Friday 21 Nov 2014 (Local Time) from KRNV Reporting Station
Overcast Overcast  
Wind Chill: 62°   Ceiling: 8000
Heat Index: 62°   Visibility: 10mi
Dew Point: 50°   Wind: 7mph
Humidity: 63%   Direction: 130°SE
Pressure: 30.26"   Gusts: NA
Location:  33.8731°N, 90.5512°W
Report Text: KRNV 220035Z AUTO 13006KT 10SM OVC080 17/10 A3026 RMK AO2 T01690099
Loading
Personal Weather Stations






























Interactive Weather Map New forecast layout! Learn more

10-Day Weather Forecast

Advertisements
Track Severe Weather on mobile